Time;durP1;ratioP1;P1;durP2;ratioP2;P2;SDS_P1;SDS_P2;PMS_P1;PMS_P2;Temp;Humidity;BMP_temperature;BMP_pressure;BME280_temperature;BME280_humidity;BME280_pressure;Samples;Min_cycle;Max_cycle;Signal;HPM_P1;HPM_P2
2021/05/14 00:01:53;;;;;;;0.85;0.63;;;;;;;12.14;75.59;99018.88;5077879;28;20127;-72
2021/05/14 00:04:19;;;;;;;1.25;0.63;;;;;;;12.14;76.03;99026.88;5073123;28;20041;-72
2021/05/14 00:06:46;;;;;;;1.55;0.73;;;;;;;12.20;75.71;99023.69;5074668;28;20476;-70
2021/05/14 00:09:12;;;;;;;1.15;0.50;;;;;;;12.04;75.73;99016.16;5074155;28;20035;-70
2021/05/14 00:11:38;;;;;;;0.93;0.55;;;;;;;12.24;75.52;99040.31;5073161;28;20477;-71
2021/05/14 00:14:03;;;;;;;0.98;0.60;;;;;;;12.16;75.76;99024.09;5072746;28;20097;-71
2021/05/14 00:16:29;;;;;;;1.55;0.70;;;;;;;12.11;75.17;99023.66;5074267;28;20024;-70
2021/05/14 00:18:54;;;;;;;1.33;0.60;;;;;;;12.17;75.40;99028.47;5074729;28;20115;-75
2021/05/14 00:21:20;;;;;;;1.45;0.85;;;;;;;12.08;75.22;99013.22;5072987;28;20075;-74
2021/05/14 00:23:45;;;;;;;3.80;0.88;;;;;;;12.16;75.58;99021.41;5072498;28;20064;-74
2021/05/14 00:26:11;;;;;;;1.85;0.70;;;;;;;12.19;75.56;99022.00;5073830;28;20037;-70
2021/05/14 00:28:36;;;;;;;0.63;0.60;;;;;;;12.15;75.68;99020.56;5074002;28;20044;-69
2021/05/14 00:31:02;;;;;;;0.50;0.50;;;;;;;12.11;75.30;99013.81;5073569;28;20481;-70
2021/05/14 00:33:28;;;;;;;0.85;0.50;;;;;;;12.15;75.21;99019.72;5074279;28;20541;-69
2021/05/14 00:35:53;;;;;;;2.20;0.77;;;;;;;12.16;75.62;99026.75;5073913;28;20039;-69
2021/05/14 00:38:18;;;;;;;2.85;0.80;;;;;;;12.04;75.38;99008.13;5073611;28;20033;-72
2021/05/14 00:40:44;;;;;;;1.13;0.68;;;;;;;12.15;75.23;99020.56;5081697;28;20054;-73
2021/05/14 00:43:10;;;;;;;0.90;0.70;;;;;;;12.20;75.12;99030.88;5084107;28;20040;-72
2021/05/14 00:45:36;;;;;;;0.82;0.60;;;;;;;12.16;74.54;99016.06;5067043;28;20033;-73
2021/05/14 00:48:02;;;;;;;0.63;0.52;;;;;;;12.15;75.50;99019.72;5076344;28;20029;-75
2021/05/14 00:50:27;;;;;;;1.08;0.70;;;;;;;12.16;75.44;99024.97;5073644;28;20124;-72
2021/05/14 00:52:53;;;;;;;0.98;0.70;;;;;;;12.07;75.21;99024.91;5072223;28;20051;-73
2021/05/14 00:55:19;;;;;;;1.42;0.88;;;;;;;12.02;75.81;99026.13;5073358;28;20081;-75
2021/05/14 00:57:45;;;;;;;0.90;0.65;;;;;;;12.08;76.10;99035.47;5073428;28;20028;-73
2021/05/14 01:00:11;;;;;;;1.88;0.88;;;;;;;12.10;75.51;99040.66;5071663;28;20032;-73
2021/05/14 01:02:36;;;;;;;1.83;0.70;;;;;;;12.06;75.46;99021.34;5071950;28;20036;-73
2021/05/14 01:05:03;;;;;;;1.27;0.80;;;;;;;12.17;75.27;99039.16;5076160;28;20481;-72
2021/05/14 01:07:29;;;;;;;1.30;0.70;;;;;;;12.20;75.27;99031.72;5073954;28;20054;-74
2021/05/14 01:09:55;;;;;;;1.73;1.00;;;;;;;12.20;75.57;99033.56;5072381;28;20474;-74
2021/05/14 01:12:21;;;;;;;3.20;0.70;;;;;;;12.15;75.51;99035.75;5071716;28;20040;-75
2021/05/14 01:14:47;;;;;;;0.88;0.50;;;;;;;11.93;75.22;99005.53;5072974;28;20127;-74
2021/05/14 01:17:12;;;;;;;1.17;0.80;;;;;;;12.19;75.37;99032.72;5055262;28;20393;-74
2021/05/14 01:19:38;;;;;;;0.70;0.70;;;;;;;11.94;75.26;98993.00;5072276;28;20082;-73
2021/05/14 01:22:04;;;;;;;1.10;0.75;;;;;;;12.16;75.45;99034.78;5071856;28;20559;-75
2021/05/14 01:24:33;;;;;;;1.48;0.70;;;;;;;12.06;75.99;99053.41;5072690;28;20053;-72
2021/05/14 01:27:00;;;;;;;1.20;0.70;;;;;;;12.03;75.34;99029.63;5072997;28;20487;-72
2021/05/14 01:29:25;;;;;;;0.80;0.63;;;;;;;11.95;75.73;99026.78;5071719;28;20071;-72
2021/05/14 01:31:51;;;;;;;2.95;0.73;;;;;;;12.06;75.90;99039.22;5073189;28;20067;-71
2021/05/14 01:34:16;;;;;;;2.72;0.60;;;;;;;12.03;75.56;99041.19;5071784;28;20534;-72
2021/05/14 01:36:42;;;;;;;1.98;0.75;;;;;;;12.08;75.48;99039.97;5073144;28;20059;-71
2021/05/14 01:39:10;;;;;;;2.17;1.00;;;;;;;11.95;75.41;99019.59;5071699;28;20036;-75
2021/05/14 01:41:36;;;;;;;0.88;0.50;;;;;;;11.95;75.78;99032.97;5072895;28;20397;-74
2021/05/14 01:44:03;;;;;;;1.25;0.55;;;;;;;11.86;75.91;99028.41;5072732;28;20036;-74
2021/05/14 01:46:29;;;;;;;0.90;0.60;;;;;;;11.93;75.14;99026.91;5072587;28;20028;-74
2021/05/14 01:48:55;;;;;;;0.88;0.40;;;;;;;11.91;75.94;99039.56;5071618;28;20037;-75
2021/05/14 01:51:22;;;;;;;0.50;0.50;;;;;;;11.91;75.39;99042.22;5071607;28;20048;-72
2021/05/14 01:53:48;;;;;;;0.85;0.50;;;;;;;11.78;75.46;99017.50;5072773;28;20400;-73
2021/05/14 01:56:14;;;;;;;1.00;0.50;;;;;;;11.90;75.78;99043.22;5072695;28;20170;-73
2021/05/14 01:58:39;;;;;;;1.45;0.40;;;;;;;11.79;75.64;99027.22;5072869;28;20032;-73
2021/05/14 02:01:05;;;;;;;0.82;0.50;;;;;;;11.56;75.71;98988.22;5072940;28;20024;-73
2021/05/14 02:03:31;;;;;;;1.30;0.80;;;;;;;11.87;75.66;99038.13;5072530;28;20036;-73
2021/05/14 02:05:56;;;;;;;1.88;0.80;;;;;;;11.90;75.23;99039.69;5072795;28;20550;-73
2021/05/14 02:08:22;;;;;;;1.10;0.50;;;;;;;11.87;75.88;99043.47;5072241;28;20516;-74
2021/05/14 02:10:48;;;;;;;1.27;0.60;;;;;;;11.77;75.35;99010.44;5054645;28;20070;-73
2021/05/14 02:13:14;;;;;;;0.93;0.60;;;;;;;11.74;75.21;99029.41;5075058;28;20047;-72
2021/05/14 02:15:40;;;;;;;0.98;0.60;;;;;;;11.94;75.12;99049.97;5075275;28;20037;-73
2021/05/14 02:18:06;;;;;;;1.55;0.80;;;;;;;11.94;75.27;99049.13;5075405;28;20448;-73
2021/05/14 02:20:32;;;;;;;0.63;0.60;;;;;;;11.88;75.25;99045.16;5075127;28;20028;-74
2021/05/14 02:22:58;;;;;;;2.40;0.88;;;;;;;11.76;74.97;99020.28;5075571;28;20465;-74
2021/05/14 02:25:24;;;;;;;2.03;0.80;;;;;;;11.91;74.76;99049.41;5075082;28;20043;-74
2021/05/14 02:27:50;;;;;;;1.05;0.65;;;;;;;11.87;75.09;99039.94;5079003;28;20043;-72
2021/05/14 02:30:16;;;;;;;1.35;0.65;;;;;;;11.97;74.90;99047.06;5078283;28;20498;-73
2021/05/14 02:32:41;;;;;;;0.63;0.55;;;;;;;11.90;74.64;99053.91;5076306;28;20036;-73
2021/05/14 02:35:07;;;;;;;1.67;0.73;;;;;;;11.91;74.67;99044.06;5075212;28;20522;-72
2021/05/14 02:37:33;;;;;;;0.70;0.70;;;;;;;11.88;74.48;99047.00;5075735;28;20044;-73
2021/05/14 02:39:59;;;;;;;0.80;0.70;;;;;;;11.93;73.95;99050.97;5074852;28;20036;-74
2021/05/14 02:42:24;;;;;;;1.08;0.75;;;;;;;11.90;74.13;99047.72;5057965;28;20037;-74
2021/05/14 02:44:50;;;;;;;1.75;0.88;;;;;;;11.92;73.58;99053.75;5075876;28;20393;-73
2021/05/14 02:47:16;;;;;;;1.92;0.63;;;;;;;11.76;74.01;99038.97;5075041;28;20036;-74
2021/05/14 02:49:41;;;;;;;1.48;0.77;;;;;;;11.81;74.00;99041.31;5075084;28;20037;-74
2021/05/14 02:52:07;;;;;;;1.08;0.70;;;;;;;11.92;74.12;99056.44;5076158;28;20044;-73
2021/05/14 02:54:33;;;;;;;1.35;0.80;;;;;;;11.91;74.01;99060.94;5074452;28;20458;-73
2021/05/14 02:56:59;;;;;;;1.25;0.65;;;;;;;11.95;73.89;99057.00;5074466;28;20036;-72
2021/05/14 02:59:26;;;;;;;2.65;0.73;;;;;;;11.97;73.24;99064.94;5074194;28;20529;-72
2021/05/14 03:01:51;;;;;;;1.38;0.70;;;;;;;11.94;73.60;99066.00;5075645;28;20035;-72
2021/05/14 03:04:17;;;;;;;1.75;0.90;;;;;;;11.79;73.81;99045.91;5074072;28;20032;-72
2021/05/14 03:06:43;;;;;;;0.80;0.75;;;;;;;11.99;73.46;99063.81;5074541;28;20029;-72
2021/05/14 03:09:08;;;;;;;1.40;0.60;;;;;;;12.01;73.20;99072.53;5077357;28;20029;-73
2021/05/14 03:11:34;;;;;;;1.40;0.93;;;;;;;12.08;72.78;99066.69;5075414;28;20036;-73
2021/05/14 03:13:59;;;;;;;2.42;0.80;;;;;;;12.04;72.47;99066.94;5075642;28;20032;-72
2021/05/14 03:16:25;;;;;;;1.55;0.70;;;;;;;12.06;72.98;99073.97;5075086;28;20031;-72
2021/05/14 03:18:50;;;;;;;1.25;0.90;;;;;;;12.00;72.65;99062.81;5075584;28;20033;-73
2021/05/14 03:21:16;;;;;;;1.70;1.00;;;;;;;12.01;72.04;99056.50;5073845;28;20480;-72
2021/05/14 03:23:42;;;;;;;0.80;0.80;;;;;;;12.11;72.18;99064.59;5074443;28;20512;-73
2021/05/14 03:26:08;;;;;;;0.98;0.70;;;;;;;11.88;72.33;99031.81;5073797;28;20048;-72
2021/05/14 03:28:34;;;;;;;1.50;0.88;;;;;;;12.21;72.09;99083.38;5075108;28;20040;-75
2021/05/14 03:30:59;;;;;;;1.95;0.88;;;;;;;12.22;72.43;99085.06;5075181;28;20082;-76
2021/05/14 03:33:25;;;;;;;1.20;0.90;;;;;;;12.29;72.38;99092.44;5073919;28;20032;-76
2021/05/14 03:35:53;;;;;;;1.95;0.80;;;;;;;12.31;71.94;99079.75;5075128;28;20060;-78
2021/05/14 03:38:22;;;;;;;3.17;1.15;;;;;;;12.38;71.43;99089.94;5075057;28;20028;-75
2021/05/14 03:40:49;;;;;;;2.92;0.93;;;;;;;12.29;72.20;99091.56;5074921;28;20524;-74
2021/05/14 03:43:14;;;;;;;1.15;0.70;;;;;;;12.28;72.61;99090.72;5074749;28;20037;-76
2021/05/14 03:45:40;;;;;;;1.58;0.85;;;;;;;12.28;72.34;99089.88;5075083;28;20048;-74
2021/05/14 03:48:19;;;;;;;1.55;1.00;;;;;;;12.13;72.00;99072.47;5074006;28;20036;-74
2021/05/14 03:50:47;;;;;;;1.10;0.90;;;;;;;12.18;71.84;99081.81;5075064;28;20028;-74
2021/05/14 03:53:12;;;;;;;1.88;1.05;;;;;;;12.27;72.06;99104.25;5074542;28;20036;-74
2021/05/14 03:55:38;;;;;;;1.38;1.05;;;;;;;12.28;72.03;99105.94;5074416;28;20555;-75
2021/05/14 03:58:04;;;;;;;0.73;0.52;;;;;;;12.15;71.44;99087.38;5073487;28;20093;-76
2021/05/14 04:00:30;;;;;;;2.03;0.82;;;;;;;12.16;72.43;99098.94;5074381;28;20119;-76
2021/05/14 04:02:56;;;;;;;2.15;0.90;;;;;;;12.08;72.23;99088.06;5073432;28;20074;-78
2021/05/14 04:05:22;;;;;;;3.10;1.00;;;;;;;12.14;72.48;99098.22;5074027;28;20033;-74
2021/05/14 04:07:48;;;;;;;1.48;1.00;;;;;;;12.13;72.09;99096.53;5074672;28;20029;-72
2021/05/14 04:10:24;;;;;;;2.00;0.93;;;;;;;12.23;72.15;99097.44;5073266;28;20029;-73
2021/05/14 04:15:34;;;;;;;1.60;0.98;;;;;;;12.21;72.60;99104.75;5073062;28;20044;-73
2021/05/14 04:17:59;;;;;;;1.33;0.98;;;;;;;11.86;72.19;99048.94;5074112;28;20037;-72
2021/05/14 04:20:25;;;;;;;4.05;1.30;;;;;;;11.99;72.19;99058.47;5072836;28;20050;-72
2021/05/14 04:22:51;;;;;;;1.77;1.20;;;;;;;12.32;71.85;99116.22;5073713;28;20048;-73
2021/05/14 04:25:17;;;;;;;1.02;0.90;;;;;;;12.29;72.28;99115.66;5072638;28;20032;-77
2021/05/14 04:27:42;;;;;;;1.80;1.20;;;;;;;12.16;72.15;99104.28;5074517;28;20036;-72
2021/05/14 04:30:08;;;;;;;1.92;1.20;;;;;;;12.35;72.26;99120.44;5072753;28;20149;-72
2021/05/14 04:32:34;;;;;;;1.33;1.00;;;;;;;12.41;71.87;99117.25;5072260;28;20043;-72
2021/05/14 04:34:59;;;;;;;2.60;1.17;;;;;;;12.35;72.00;99112.44;5073725;28;20032;-72
2021/05/14 04:37:25;;;;;;;2.15;1.17;;;;;;;12.42;71.90;99116.28;5072745;28;20028;-71
2021/05/14 04:39:50;;;;;;;2.75;1.25;;;;;;;12.34;71.90;99105.38;5073921;28;20031;-74
2021/05/14 04:42:16;;;;;;;1.52;1.00;;;;;;;12.43;72.03;99128.66;5073652;28;20072;-74
2021/05/14 04:44:41;;;;;;;2.00;1.20;;;;;;;12.47;71.55;99127.44;5073473;28;20060;-80
2021/05/14 04:47:07;;;;;;;2.45;1.23;;;;;;;12.39;71.94;99116.56;5073713;28;20043;-76
2021/05/14 04:49:32;;;;;;;2.70;1.20;;;;;;;12.46;71.83;99125.75;5073537;28;20037;-70
2021/05/14 04:51:58;;;;;;;1.80;1.08;;;;;;;12.47;72.47;99138.16;5073971;28;20362;-70
2021/05/14 04:54:24;;;;;;;2.45;1.25;;;;;;;12.52;72.64;99130.56;5071908;28;20043;-73
2021/05/14 04:56:50;;;;;;;3.03;1.42;;;;;;;12.43;73.55;99128.66;5072385;28;20044;-71
2021/05/14 04:59:15;;;;;;;2.13;1.40;;;;;;;12.34;74.56;99108.06;5072389;28;20400;-72
2021/05/14 05:01:41;;;;;;;4.13;1.50;;;;;;;12.39;74.72;99131.75;5072029;28;20063;-71
2021/05/14 05:04:06;;;;;;;1.90;1.30;;;;;;;12.22;74.68;99112.63;5073686;28;20116;-72
2021/05/14 05:06:33;;;;;;;3.08;1.17;;;;;;;12.21;75.00;99135.00;5072414;28;20360;-72
2021/05/14 05:08:59;;;;;;;3.17;1.60;;;;;;;12.23;74.98;99132.19;5073589;28;20391;-73
2021/05/14 05:11:25;;;;;;;2.67;1.52;;;;;;;12.34;75.35;99137.47;5072237;28;20366;-76
2021/05/14 05:13:51;;;;;;;2.20;1.30;;;;;;;12.43;75.32;99136.69;5075340;28;20040;-72
2021/05/14 05:16:16;;;;;;;2.15;1.30;;;;;;;12.34;74.75;99142.81;5073285;28;20058;-74
2021/05/14 05:18:42;;;;;;;2.10;1.40;;;;;;;12.46;74.13;99140.94;5071636;28;20043;-75
2021/05/14 05:21:07;;;;;;;2.88;1.33;;;;;;;12.47;73.80;99138.16;5073963;28;20343;-77
2021/05/14 05:23:33;;;;;;;4.43;1.45;;;;;;;12.44;73.68;99149.09;5072688;28;20276;-77
2021/05/14 05:25:58;;;;;;;1.77;1.25;;;;;;;12.31;73.68;99143.94;5072308;28;20055;-74
2021/05/14 05:28:29;;;;;;;2.92;1.27;;;;;;;12.40;73.27;99147.66;5073137;28;20029;-76
2021/05/14 05:30:55;;;;;;;2.38;1.35;;;;;;;12.50;72.44;99143.22;5071515;28;20406;-73
2021/05/14 05:33:20;;;;;;;2.70;1.23;;;;;;;12.38;72.61;99133.56;5072102;28;20056;-72
2021/05/14 05:35:46;;;;;;;2.50;1.73;;;;;;;12.53;72.93;99153.66;5073358;28;20487;-72
2021/05/14 05:38:24;;;;;;;2.10;1.30;;;;;;;12.62;72.34;99157.38;5072335;28;20039;-74
2021/05/14 05:40:50;;;;;;;2.33;1.40;;;;;;;12.59;72.45;99139.75;5071952;28;20393;-75
2021/05/14 05:43:15;;;;;;;2.42;1.42;;;;;;;12.78;72.72;99147.03;5078211;28;20037;-75
2021/05/14 05:45:41;;;;;;;2.28;1.40;;;;;;;12.75;72.26;99151.81;5082340;28;20470;-75
2021/05/14 05:48:08;;;;;;;2.60;1.60;;;;;;;12.70;72.82;99175.44;5082457;28;20037;-74
2021/05/14 05:50:35;;;;;;;1.77;1.25;;;;;;;12.69;71.99;99163.03;5078713;28;20032;-73
2021/05/14 05:53:01;;;;;;;0.80;0.55;;;;;;;12.20;72.36;99108.41;5073635;28;20060;-75
2021/05/14 05:55:26;;;;;;;5.47;1.48;;;;;;;12.48;73.17;99173.75;5072189;28;20075;-74
2021/05/14 05:57:51;;;;;;;3.65;1.50;;;;;;;12.59;72.89;99173.69;5071304;28;20070;-75
2021/05/14 06:00:17;;;;;;;2.08;1.38;;;;;;;12.59;72.53;99179.03;5073465;28;20036;-74
2021/05/14 06:02:43;;;;;;;3.10;1.40;;;;;;;12.40;72.97;99177.06;5072629;28;20039;-75
2021/05/14 06:05:09;;;;;;;2.42;1.02;;;;;;;12.32;73.26;99187.56;5071952;28;20033;-75
2021/05/14 06:07:35;;;;;;;2.50;1.10;;;;;;;12.44;73.10;99196.38;5072932;28;20029;-73
2021/05/14 06:10:01;;;;;;;2.83;1.42;;;;;;;12.35;73.03;99183.78;5072186;28;20094;-74
2021/05/14 06:12:26;;;;;;;1.40;1.05;;;;;;;12.37;73.05;99177.34;5071503;28;20036;-73
2021/05/14 06:14:52;;;;;;;1.23;0.82;;;;;;;12.43;72.72;99184.81;5063270;28;20502;-76
2021/05/14 06:17:17;;;;;;;3.15;1.30;;;;;;;12.38;73.07;99189.72;5073290;28;20040;-72
2021/05/14 06:19:57;;;;;;;2.25;1.30;;;;;;;12.46;72.80;99197.97;5071360;28;20033;-74
2021/05/14 06:22:23;;;;;;;2.33;1.00;;;;;;;12.42;73.20;99199.19;5071210;28;20105;-71
2021/05/14 06:24:48;;;;;;;4.72;1.65;;;;;;;12.39;73.47;99198.59;5070774;28;20048;-71
2021/05/14 06:27:13;;;;;;;2.83;1.60;;;;;;;12.25;73.85;99170.34;5071158;28;20153;-72
2021/05/14 06:29:41;;;;;;;5.65;1.80;;;;;;;12.66;73.30;99217.66;5054202;28;20060;-71
2021/05/14 06:32:07;;;;;;;3.85;1.30;;;;;;;12.77;72.81;99214.06;5072216;28;20045;-74
2021/05/14 06:34:32;;;;;;;2.78;1.40;;;;;;;12.68;73.22;99198.81;5054464;28;20531;-74
2021/05/14 06:36:58;;;;;;;2.15;1.20;;;;;;;12.38;73.49;99221.81;5072270;28;20036;-75
2021/05/14 06:39:23;;;;;;;3.67;1.40;;;;;;;12.47;73.07;99234.44;5071185;28;20043;-72
2021/05/14 06:41:49;;;;;;;2.05;1.30;;;;;;;12.38;73.59;99213.81;5070697;28;20060;-72
2021/05/14 06:44:14;;;;;;;2.15;1.13;;;;;;;12.53;73.15;99231.22;5071935;28;20585;-71
2021/05/14 06:46:40;;;;;;;2.92;1.40;;;;;;;12.53;73.31;99228.53;5071046;28;20124;-75
2021/05/14 06:49:07;;;;;;;0.85;0.70;;;;;;;12.39;73.59;99225.34;5072115;28;20029;-72
2021/05/14 06:51:34;;;;;;;2.08;1.30;;;;;;;12.48;73.30;99225.41;5071783;28;20040;-75
2021/05/14 06:54:00;;;;;;;2.42;1.40;;;;;;;12.74;72.86;99233.94;5072170;28;20059;-75
2021/05/14 06:56:26;;;;;;;1.90;1.30;;;;;;;12.61;72.81;99234.09;5071093;28;20058;-72
2021/05/14 06:58:54;;;;;;;1.83;0.98;;;;;;;12.48;72.78;99213.88;5073302;28;20153;-72
2021/05/14 07:01:20;;;;;;;1.30;1.00;;;;;;;12.77;72.36;99230.97;5073567;28;20414;-72
2021/05/14 07:03:46;;;;;;;1.90;1.27;;;;;;;12.93;72.37;99251.91;5075064;28;20036;-75
2021/05/14 07:06:13;;;;;;;2.63;1.33;;;;;;;13.06;71.03;99241.84;5075584;28;20033;-72
2021/05/14 07:08:39;;;;;;;1.70;1.15;;;;;;;12.58;71.44;99178.19;5074205;28;20103;-72
2021/05/14 07:11:04;;;;;;;1.98;1.20;;;;;;;12.59;72.02;99190.59;5074511;28;20127;-75
2021/05/14 07:13:30;;;;;;;0.98;0.85;;;;;;;12.91;71.72;99243.16;5073532;28;20036;-74
2021/05/14 07:15:55;;;;;;;2.58;1.30;;;;;;;12.87;72.18;99252.44;5057348;28;20058;-71
2021/05/14 07:18:21;;;;;;;1.33;1.08;;;;;;;12.86;72.40;99256.97;5059476;28;20027;-74
2021/05/14 07:20:46;;;;;;;3.72;1.30;;;;;;;12.94;72.42;99260.81;5075319;28;20032;-73
2021/05/14 07:23:12;;;;;;;2.30;1.38;;;;;;;13.05;72.38;99244.66;5073461;28;20105;-73
2021/05/14 07:25:37;;;;;;;2.00;1.40;;;;;;;12.77;71.74;99192.66;5073734;28;20059;-72
2021/05/14 07:28:03;;;;;;;2.25;1.10;;;;;;;13.22;71.17;99267.31;5073845;28;20037;-72
2021/05/14 07:30:28;;;;;;;2.40;1.27;;;;;;;12.99;72.27;99256.75;5075186;28;20171;-72
2021/05/14 07:32:54;;;;;;;2.72;1.17;;;;;;;12.94;72.02;99256.31;5074899;28;20028;-72
2021/05/14 07:35:19;;;;;;;3.28;1.23;;;;;;;12.84;71.49;99225.97;5075141;28;20036;-75
2021/05/14 07:37:45;;;;;;;1.65;0.93;;;;;;;12.99;71.14;99240.69;5074872;28;20393;-69
2021/05/14 07:40:10;;;;;;;2.58;1.25;;;;;;;13.21;71.49;99269.16;5074934;28;20060;-72
2021/05/14 07:42:36;;;;;;;1.77;1.30;;;;;;;13.34;70.62;99263.59;5074170;28;20082;-71
2021/05/14 07:45:02;;;;;;;2.25;1.50;;;;;;;13.32;70.65;99258.38;5074578;28;20063;-75
2021/05/14 07:47:28;;;;;;;3.50;1.40;;;;;;;13.43;69.99;99244.91;5073713;28;20039;-75
2021/05/14 07:49:53;;;;;;;3.00;1.63;;;;;;;13.13;70.32;99210.91;5074802;28;20115;-73
2021/05/14 07:52:19;;;;;;;3.72;1.40;;;;;;;13.49;70.63;99253.34;5074366;28;20462;-71
2021/05/14 07:54:44;;;;;;;2.33;1.50;;;;;;;13.73;70.38;99262.78;5074541;28;20037;-72
2021/05/14 07:57:10;;;;;;;2.33;1.30;;;;;;;13.36;69.38;99226.81;5073368;28;20039;-70
2021/05/14 07:59:35;;;;;;;1.55;1.10;;;;;;;13.54;70.30;99269.88;5074474;28;20106;-73
2021/05/14 08:02:01;;;;;;;1.83;1.00;;;;;;;13.52;70.15;99278.06;5074431;28;20028;-74
2021/05/14 08:04:26;;;;;;;2.72;1.75;;;;;;;13.79;70.24;99281.94;5074317;28;20378;-71
2021/05/14 08:06:51;;;;;;;3.17;1.40;;;;;;;14.02;69.09;99280.78;5074592;28;20041;-72
2021/05/14 08:09:23;;;;;;;1.50;1.23;;;;;;;13.80;69.45;99278.28;5074208;28;20452;-74
2021/05/14 08:11:50;;;;;;;2.03;1.60;;;;;;;14.03;69.20;99277.09;5073665;28;20036;-72
2021/05/14 08:14:16;;;;;;;2.08;1.27;;;;;;;13.66;69.66;99276.84;5072791;28;20024;-74
2021/05/14 08:16:42;;;;;;;2.70;1.17;;;;;;;13.70;70.09;99287.16;5073181;28;20128;-71
2021/05/14 08:19:11;;;;;;;3.92;1.15;;;;;;;13.66;70.29;99291.09;5074137;28;20119;-75
2021/05/14 08:21:37;;;;;;;3.50;1.30;;;;;;;13.70;70.74;99294.34;5074224;28;20094;-76
2021/05/14 08:24:02;;;;;;;3.40;1.45;;;;;;;13.75;70.21;99303.69;5072781;28;20444;-75
2021/05/14 08:26:28;;;;;;;2.95;1.50;;;;;;;13.62;70.37;99254.84;5072647;28;20094;-71
2021/05/14 08:28:53;;;;;;;2.63;1.60;;;;;;;14.08;70.39;99304.31;5074394;28;20034;-75
2021/05/14 08:31:19;;;;;;;2.00;1.40;;;;;;;14.05;70.46;99309.97;5056000;28;20044;-71
2021/05/14 08:33:45;;;;;;;2.08;1.50;;;;;;;13.87;70.14;99288.34;5073937;28;20034;-71
2021/05/14 08:36:10;;;;;;;1.52;1.10;;;;;;;13.63;70.46;99307.44;5072769;28;20036;-70
2021/05/14 08:38:35;;;;;;;1.40;1.10;;;;;;;13.54;70.71;99313.59;5073596;28;20469;-71
2021/05/14 08:41:08;;;;;;;3.78;1.63;;;;;;;13.71;70.57;99304.94;5073530;28;20036;-72
2021/05/14 08:43:34;;;;;;;2.65;1.60;;;;;;;14.28;69.44;99311.47;5072185;28;20382;-72
2021/05/14 08:46:03;;;;;;;5.50;1.48;;;;;;;14.28;69.39;99316.81;5073490;28;20041;-73
2021/05/14 08:48:35;;;;;;;2.35;1.25;;;;;;;13.85;68.12;99258.16;5073679;28;20064;-74
2021/05/14 08:51:09;;;;;;;1.48;0.80;;;;;;;13.88;69.23;99302.59;5073449;28;20040;-72
2021/05/14 08:53:35;;;;;;;1.80;1.00;;;;;;;14.38;69.13;99321.31;5072143;28;20044;-73
2021/05/14 08:56:01;;;;;;;2.75;1.30;;;;;;;14.06;69.15;99317.03;5072263;28;20476;-73
2021/05/14 08:58:27;;;;;;;2.42;1.25;;;;;;;13.89;70.52;99328.41;5072320;28;20035;-74
2021/05/14 09:00:53;;;;;;;2.08;0.65;;;;;;;13.87;70.85;99330.38;5073447;28;20054;-74
2021/05/14 09:03:20;;;;;;;4.03;1.60;;;;;;;13.90;71.84;99317.56;5073184;28;20040;-70
2021/05/14 09:05:47;;;;;;;3.38;1.83;;;;;;;14.23;71.04;99332.47;5072081;28;20055;-70
2021/05/14 09:08:13;;;;;;;1.88;1.30;;;;;;;14.27;69.98;99331.19;5073191;28;20565;-70
2021/05/14 09:10:38;;;;;;;1.85;1.15;;;;;;;14.23;70.49;99328.94;5072470;28;20094;-75
2021/05/14 09:13:11;;;;;;;3.08;1.50;;;;;;;14.66;69.47;99342.00;5072609;28;20056;-74
2021/05/14 09:15:39;;;;;;;1.85;1.23;;;;;;;14.51;69.13;99338.06;5073178;28;20032;-74
2021/05/14 09:18:16;;;;;;;2.10;1.42;;;;;;;14.69;68.92;99352.50;5071860;28;20029;-74
2021/05/14 09:20:45;;;;;;;1.67;1.02;;;;;;;14.31;68.97;99340.69;5071802;28;20112;-77
2021/05/14 09:23:16;;;;;;;2.63;1.42;;;;;;;14.82;68.64;99353.06;5071919;28;20068;-74
2021/05/14 09:26:10;;;;;;;2.30;1.25;;;;;;;14.48;67.86;99325.78;5072882;28;20078;-72
2021/05/14 09:28:38;;;;;;;2.15;1.20;;;;;;;14.69;68.14;99344.44;5073172;28;20029;-74
2021/05/14 09:31:10;;;;;;;1.20;0.82;;;;;;;14.60;66.95;99354.16;5072701;28;20029;-71
2021/05/14 09:33:38;;;;;;;1.50;1.00;;;;;;;14.45;67.33;99354.69;5072946;28;20032;-73
2021/05/14 09:36:09;;;;;;;2.45;1.20;;;;;;;14.48;67.28;99357.97;5071703;28;20028;-73
2021/05/14 09:38:49;;;;;;;1.65;1.10;;;;;;;14.60;66.79;99359.53;5073122;28;20127;-75
2021/05/14 09:41:31;;;;;;;1.50;1.20;;;;;;;15.06;66.22;99357.16;5072654;28;20067;-75
2021/05/14 09:44:00;;;;;;;3.00;1.20;;;;;;;15.02;66.82;99363.78;5072595;28;20039;-73
2021/05/14 09:46:47;;;;;;;2.13;1.20;;;;;;;15.31;65.60;99358.38;5072832;28;20120;-74
2021/05/14 09:49:18;;;;;;;2.45;1.38;;;;;;;15.19;65.65;99328.16;5071497;28;20033;-73
2021/05/14 09:51:56;;;;;;;1.92;1.10;;;;;;;15.06;65.81;99343.72;5072699;28;20106;-74
2021/05/14 09:54:33;;;;;;;2.95;1.50;;;;;;;15.32;65.95;99355.56;5081738;28;20040;-75
2021/05/14 09:57:07;;;;;;;2.30;1.60;;;;;;;14.88;67.17;99357.88;5081591;28;20028;-75
2021/05/14 09:59:32;;;;;;;2.53;1.60;;;;;;;14.95;68.30;99351.91;5074892;28;20037;-73
2021/05/14 10:01:58;;;;;;;3.00;1.50;;;;;;;14.87;68.51;99360.69;5072644;28;20503;-72
2021/05/14 10:04:26;;;;;;;4.45;1.88;;;;;;;14.54;69.51;99327.03;5073854;28;20025;-73
2021/05/14 10:06:53;;;;;;;2.22;1.00;;;;;;;14.46;69.74;99367.13;5072850;28;20040;-73
2021/05/14 10:09:20;;;;;;;3.63;1.40;;;;;;;14.59;70.91;99367.75;5055054;28;20465;-72
2021/05/14 10:11:46;;;;;;;2.88;1.42;;;;;;;14.55;69.89;99366.28;5072402;28;20478;-74
2021/05/14 10:14:12;;;;;;;1.70;1.10;;;;;;;14.54;68.94;99364.59;5071949;28;20097;-70
2021/05/14 10:16:38;;;;;;;2.50;1.50;;;;;;;14.38;69.42;99358.88;5071327;28;20127;-74
2021/05/14 10:19:05;;;;;;;3.50;1.80;;;;;;;14.72;69.17;99354.88;5070984;28;20029;-77
2021/05/14 10:21:33;;;;;;;2.83;1.90;;;;;;;14.67;68.85;99321.38;5070240;28;20036;-77
2021/05/14 10:23:58;;;;;;;3.10;1.60;;;;;;;15.38;67.45;99368.41;5070897;28;20053;-74
2021/05/14 10:26:38;;;;;;;4.45;1.75;;;;;;;15.70;66.95;99359.16;5072684;28;20039;-76
2021/05/14 10:29:14;;;;;;;2.33;1.33;;;;;;;14.92;67.10;99365.63;5071126;28;20039;-72
2021/05/14 10:31:44;;;;;;;2.53;1.60;;;;;;;14.66;68.08;99352.75;5037608;28;20485;-72
2021/05/14 10:34:16;;;;;;;3.92;1.50;;;;;;;14.08;69.84;99325.78;5073542;28;20032;-72
2021/05/14 10:36:44;;;;;;;3.38;1.85;;;;;;;14.39;70.13;99379.38;5076682;28;20041;-72
2021/05/14 10:39:18;;;;;;;2.75;1.58;;;;;;;14.28;70.25;99373.16;5077945;28;20024;-72
2021/05/14 10:42:05;;;;;;;3.00;1.50;;;;;;;14.56;70.09;99374.19;5063129;28;20040;-71
2021/05/14 10:44:51;;;;;;;3.90;1.75;;;;;;;14.13;69.32;99318.19;5066881;28;20037;-74
2021/05/14 10:47:26;;;;;;;2.33;1.40;;;;;;;14.63;69.79;99374.50;5069656;28;20510;-74
2021/05/14 10:50:03;;;;;;;2.20;1.15;;;;;;;14.35;70.99;99386.84;5073086;28;20036;-72
2021/05/14 10:52:31;;;;;;;2.33;1.35;;;;;;;14.28;71.00;99369.59;5076505;28;20074;-71
2021/05/14 10:54:57;;;;;;;2.97;1.48;;;;;;;13.86;72.48;99323.31;5075170;28;20035;-70
2021/05/14 10:57:46;;;;;;;4.80;2.10;;;;;;;14.57;72.34;99385.78;5077332;28;20416;-73
2021/05/14 11:00:25;;;;;;;3.33;1.92;;;;;;;14.86;68.61;99386.69;5075087;28;20028;-73
2021/05/14 11:03:09;;;;;;;3.90;2.10;;;;;;;15.22;69.31;99392.31;5074123;28;20466;-75
2021/05/14 11:05:37;;;;;;;2.65;1.38;;;;;;;15.11;68.37;99395.16;5075441;28;20048;-75
2021/05/14 11:08:02;;;;;;;4.25;1.65;;;;;;;14.54;66.77;99365.44;5075810;28;20071;-75
2021/05/14 11:10:30;;;;;;;2.90;1.60;;;;;;;14.75;69.08;99389.50;5074330;28;20045;-72
2021/05/14 11:12:56;;;;;;;3.08;1.42;;;;;;;14.51;67.74;99381.00;5074977;28;20036;-72
2021/05/14 11:15:21;;;;;;;3.78;1.70;;;;;;;14.95;68.07;99395.72;5074108;28;20037;-72
2021/05/14 11:18:05;;;;;;;2.97;1.60;;;;;;;15.44;67.31;99401.91;5075635;28;20374;-76
2021/05/14 11:20:48;;;;;;;1.92;1.20;;;;;;;15.61;64.30;99389.63;5075482;28;20040;-72
2021/05/14 11:23:34;;;;;;;2.20;1.27;;;;;;;15.47;63.77;99374.78;5073619;28;20056;-69
2021/05/14 11:26:01;;;;;;;2.45;1.48;;;;;;;15.71;64.07;99401.19;5075258;28;20040;-74
2021/05/14 11:28:41;;;;;;;2.13;1.10;;;;;;;15.46;63.53;99390.06;5057455;28;20098;-72
2021/05/14 11:31:25;;;;;;;1.48;1.23;;;;;;;15.01;63.82;99372.84;5075076;28;20036;-70
2021/05/14 11:33:55;;;;;;;1.92;1.08;;;;;;;15.16;63.81;99395.59;5075151;28;20477;-75
2021/05/14 11:36:25;;;;;;;1.83;0.88;;;;;;;15.31;63.58;99375.34;5075443;28;20039;-71
2021/05/14 11:38:56;;;;;;;2.45;1.00;;;;;;;15.31;62.81;99386.09;5075106;28;20036;-73